Weston, WY

9:51 AM MDT on July 28, 2016 (GMT -0600)
Gillette-Campbell County | | Change Station

Elev 4364 ft 44.34 °N, 105.54 °W | Updated 8 minutes ago

Mostly Cloudy
Mostly Cloudy
63 °F
Feels Like 63 °F
N
10
Wind Variable Wind from WNW

Today
High -- | Low -- °F
--% Chance of Precip.
Yesterday
High -- | Low -- °F
Precip. -- in
Pressure 30.21 in
Visibility 10.0 miles
Clouds Scattered Clouds 2700 ft
Scattered Clouds 3300 ft
Mostly Cloudy 11000 ft
Dew Point 59 °F
Humidity 87%
Rainfall 0.30 in
Snow Depth Not available.
5:45 AM 8:31 PM
Waning Crescent, 31% visible
SPECI KGCC 281543Z AUTO 30009KT 10SM SCT027 SCT033 BKN110 17/15 A3021 RMK AO2 LTG DSNT N T01720150
Pressure 30.21 in
Visibility 10.0 miles
Clouds Scattered Clouds 2700 ft
Scattered Clouds 3300 ft
Mostly Cloudy 11000 ft
Dew Point 59 °F
Humidity 87%
Rainfall 0.30 in
Snow Depth Not available.
5:45 AM 8:31 PM
Waning Crescent, 31% visible
SPECI KGCC 281543Z AUTO 30009KT 10SM SCT027 SCT033 BKN110 17/15 A3021 RMK AO2 LTG DSNT N T01720150

10-Day Weather Forecast

Almanac

Astronomy

Jul. 28, 2016 Rise Set
Actual Time
Civil Twilight
Nautical Twilight
Astronomical Twilight
Moon
Length of Visible Light
Length of Day
Tomorrow will be .
, % of the Moon is Illuminated

Today's Extremes

State Highs State Lows

Community

WunderPhotos

Upload Photos

1,928,140 photos uploaded!

WunderBlog® & News

Nearby

Air Quality

  Air Quality AQ Index Pollutant
Not available.

Snow Depth

Station Depth Elevation

Earthquake Activity

City Distance Mag. Time & Date
Minimum magnitude displayed is 2.5.

Coastal Water Temperatures

Place Temperature

Stations

Nearby Weather Stations

Station Location Temp. Windchill Dew Point Humidity Wind Precip. Elev Updated Type
                   

Watches & Warnings

There are currently no watches in effect.